NCAR-RAP Real-Time Weather Data

Output produced by METARs form (06 May 2021  15:14 UTC)
found at http://weather.rap.ucar.edu/surface/
 
KGVL 061453Z AUTO VRB03KT 10SM FEW027 17/08 A3010 RMK AO2 SLP185 T01670083 51005
KGVL 061353Z AUTO 00000KT 10SM CLR 16/08 A3010 RMK AO2 SLP185 T01560083
KGVL 061253Z AUTO 35004KT 10SM CLR 14/08 A3011 RMK AO2 SLP187 T01390078
KGVL 061153Z AUTO 33004KT 10SM CLR 12/08 A3009 RMK AO2 SLP181 T01170078 10133 20094 51013
KGVL 061053Z AUTO 32005KT 10SM CLR 10/07 A3008 RMK AO2 SLP176 T01000072
KGVL 060953Z AUTO 31006KT 10SM CLR 10/07 A3006 RMK AO2 SLP171 T01000072
KGVL 060853Z AUTO 28004KT 10SM CLR 10/08 A3005 RMK AO2 SLP166 T01000078 55001
KGVL 060753Z AUTO 27004KT 10SM CLR 11/08 A3004 RMK AO2 SLP162 T01110083
KGVL 060653Z AUTO 31004KT 10SM CLR 12/09 A3004 RMK AO2 SLP164 T01170089
KGVL 060553Z AUTO 31006KT 10SM CLR 13/09 A3005 RMK AO2 SLP166 T01330094 10200 20133 58001
KGVL 060453Z AUTO 32007KT 10SM CLR 14/10 A3006 RMK AO2 SLP169 T01440100 402330144
KGVL 060353Z AUTO 32009KT 10SM CLR 16/11 A3006 RMK AO2 SLP169 T01560106
KGVL 060253Z AUTO 32005KT 10SM CLR 16/12 A3006 RMK AO2 SLP168 T01610117 53012
KGVL 060153Z AUTO 30006KT 10SM CLR 17/12 A3004 RMK AO2 SLP164 T01720122
KGVL 060053Z AUTO 31008KT 10SM CLR 18/12 A3003 RMK AO2 SLP158 T01830117
KGVL 052353Z AUTO 30010G19KT 10SM FEW050 FEW060 20/11 A3002 RMK AO2 PK WND 28030/2254 SLP154 T02000111 10233 20200 53014